Time;durP1;ratioP1;P1;durP2;ratioP2;P2;SDS_P1;SDS_P2;PMS_P1;PMS_P2;Temp;Humidity;BMP_temperature;BMP_pressure;BME280_temperature;BME280_humidity;BME280_pressure;Samples;Min_cycle;Max_cycle;Signal;HPM_P1;HPM_P2
2023/11/30 00:02:32;;;;;;;16.33;8.63;;;;;;;;;;6220206;28;20045;-94
2023/11/30 00:05:34;;;;;;;13.48;8.05;;;;;;;;;;6240821;28;20091;-93
2023/11/30 00:08:35;;;;;;;14.52;8.23;;;;;;;;;;6247245;28;20057;-95
2023/11/30 00:11:38;;;;;;;13.80;8.55;;;;;;;;;;6244469;28;20049;-95
2023/11/30 00:18:18;;;;;;;12.55;8.13;;;;;;;;;;6223720;28;20057;-93
2023/11/30 00:21:20;;;;;;;11.95;7.68;;;;;;;;;;6243763;28;20045;-93
2023/11/30 00:24:22;;;;;;;12.35;7.72;;;;;;;;;;6226093;28;20120;-94
2023/11/30 00:27:24;;;;;;;10.98;7.57;;;;;;;;;;6234403;28;20049;-94
2023/11/30 00:33:43;;;;;;;12.35;7.47;;;;;;;;;;6192021;28;20065;-94
2023/11/30 00:36:45;;;;;;;13.10;7.90;;;;;;;;;;6228305;28;20306;-95
2023/11/30 00:39:47;;;;;;;90.55;39.92;;;;;;;;;;6249164;28;20116;-95
2023/11/30 00:42:49;;;;;;;104.03;46.95;;;;;;;;;;6246343;28;20061;-93
2023/11/30 00:45:52;;;;;;;71.03;32.90;;;;;;;;;;6249663;28;20319;-96
2023/11/30 00:48:54;;;;;;;14.77;8.77;;;;;;;;;;6253001;28;20049;-96
2023/11/30 00:51:56;;;;;;;11.82;7.60;;;;;;;;;;6230794;28;20214;-96
2023/11/30 00:54:58;;;;;;;10.57;6.95;;;;;;;;;;6249904;28;20045;-92
2023/11/30 00:58:01;;;;;;;11.70;7.30;;;;;;;;;;6248868;28;20231;-96
2023/11/30 01:01:04;;;;;;;13.18;7.40;;;;;;;;;;6247911;28;20049;-95
2023/11/30 01:04:06;;;;;;;11.93;7.13;;;;;;;;;;6245101;28;20057;-95
2023/11/30 01:07:10;;;;;;;11.30;6.63;;;;;;;;;;6248674;28;20059;-96
2023/11/30 01:10:32;;;;;;;9.35;6.38;;;;;;;;;;6251687;28;20096;-96
2023/11/30 01:13:34;;;;;;;11.60;6.65;;;;;;;;;;6230532;28;20138;-94
2023/11/30 01:19:55;;;;;;;10.60;6.05;;;;;;;;;;6174267;28;20123;-96
2023/11/30 01:22:57;;;;;;;9.10;6.32;;;;;;;;;;6245589;28;20057;-95
2023/11/30 01:25:59;;;;;;;9.38;5.63;;;;;;;;;;6230687;28;20061;-96
2023/11/30 01:29:01;;;;;;;11.88;6.07;;;;;;;;;;6239102;28;20053;-96
2023/11/30 01:32:06;;;;;;;12.63;7.00;;;;;;;;;;6249591;28;20049;-96
2023/11/30 01:35:08;;;;;;;5.68;3.85;;;;;;;;;;6250442;28;20049;-96
2023/11/30 01:38:10;;;;;;;6.38;3.35;;;;;;;;;;6246703;28;20080;-96
2023/11/30 01:41:12;;;;;;;4.68;3.13;;;;;;;;;;6256061;28;20060;-96
2023/11/30 01:44:14;;;;;;;6.00;3.47;;;;;;;;;;6247665;28;20105;-96
2023/11/30 01:47:17;;;;;;;5.20;3.28;;;;;;;;;;6243727;28;20373;-96
2023/11/30 01:50:19;;;;;;;6.00;3.43;;;;;;;;;;6246525;28;20052;-96
2023/11/30 01:53:22;;;;;;;8.00;3.67;;;;;;;;;;6251374;28;20059;-96
2023/11/30 01:56:24;;;;;;;5.78;3.80;;;;;;;;;;6250314;28;20056;-96
2023/11/30 01:59:26;;;;;;;4.97;3.63;;;;;;;;;;6249288;28;20203;-96
2023/11/30 02:02:30;;;;;;;6.68;3.63;;;;;;;;;;6245951;28;20053;-96
2023/11/30 02:08:48;;;;;;;7.05;3.92;;;;;;;;;;6233502;28;20053;-96
2023/11/30 02:11:50;;;;;;;6.38;3.42;;;;;;;;;;6250094;28;20045;-96
2023/11/30 02:14:52;;;;;;;5.05;3.33;;;;;;;;;;6238282;28;20049;-96
2023/11/30 02:17:57;;;;;;;4.95;3.28;;;;;;;;;;6246717;28;20062;-96
2023/11/30 02:20:59;;;;;;;7.63;4.18;;;;;;;;;;6244520;28;20083;-96
2023/11/30 02:24:02;;;;;;;6.18;3.88;;;;;;;;;;6248476;28;20057;-96
2023/11/30 02:27:05;;;;;;;7.35;4.10;;;;;;;;;;6244081;28;20065;-96
2023/11/30 02:30:08;;;;;;;7.88;4.70;;;;;;;;;;6246745;28;20129;-96
2023/11/30 02:33:10;;;;;;;8.60;4.50;;;;;;;;;;6243576;28;20136;-96
2023/11/30 02:39:39;;;;;;;9.48;5.70;;;;;;;;;;6175118;28;20047;-96
2023/11/30 02:42:41;;;;;;;8.10;5.75;;;;;;;;;;6174971;28;20110;-96
2023/11/30 02:45:44;;;;;;;9.30;5.28;;;;;;;;;;6170648;28;20113;-96
2023/11/30 02:49:06;;;;;;;9.93;6.13;;;;;;;;;;6088961;29;20056;-96
2023/11/30 02:52:09;;;;;;;8.95;5.68;;;;;;;;;;6061353;29;20409;-96
2023/11/30 02:55:12;;;;;;;8.70;6.18;;;;;;;;;;6072655;29;20063;-96
2023/11/30 02:58:15;;;;;;;8.77;6.07;;;;;;;;;;6092739;29;20074;-96
2023/11/30 03:01:17;;;;;;;12.35;6.80;;;;;;;;;;6087908;29;20264;-96
2023/11/30 03:04:22;;;;;;;9.45;6.30;;;;;;;;;;6083524;29;20082;-96
2023/11/30 03:07:27;;;;;;;9.20;6.30;;;;;;;;;;6072166;29;20338;-96
2023/11/30 03:14:31;;;;;;;10.40;6.43;;;;;;;;;;6382853;22;20049;-96
2023/11/30 03:17:32;;;;;;;10.07;6.50;;;;;;;;;;6281696;28;20057;-96
2023/11/30 03:20:35;;;;;;;11.85;6.72;;;;;;;;;;6291843;28;20059;-95
2023/11/30 03:23:37;;;;;;;11.38;6.80;;;;;;;;;;6285617;28;20049;-96
2023/11/30 03:30:37;;;;;;;10.07;6.40;;;;;;;;;;6288513;28;20032;-96
2023/11/30 03:37:43;;;;;;;10.18;6.57;;;;;;;;;;6234382;28;20045;-96
2023/11/30 03:41:04;;;;;;;9.05;6.97;;;;;;;;;;6280233;28;20048;-96
2023/11/30 03:44:08;;;;;;;10.30;6.55;;;;;;;;;;6284331;28;20048;-96
2023/11/30 03:47:10;;;;;;;10.68;5.78;;;;;;;;;;6287132;28;20518;-96
2023/11/30 03:50:12;;;;;;;11.07;6.57;;;;;;;;;;6284891;28;20096;-96
2023/11/30 04:14:05;;;;;;;11.45;7.60;;;;;;;;;;6165755;28;20070;-96
2023/11/30 04:17:13;;;;;;;11.73;7.70;;;;;;;;;;6159040;28;20102;-96
2023/11/30 04:20:36;;;;;;;11.07;7.07;;;;;;;;;;6139488;28;20062;-96
2023/11/30 04:27:30;;;;;;;11.40;7.43;;;;;;;;;;6056837;29;20048;-96
2023/11/30 04:30:32;;;;;;;11.23;7.40;;;;;;;;;;6173446;28;20050;-95
2023/11/30 04:36:57;;;;;;;12.00;6.90;;;;;;;;;;6174545;28;20046;-96
2023/11/30 04:46:38;;;;;;;15.57;8.65;;;;;;;;;;6237146;28;20074;-96
2023/11/30 04:53:22;;;;;;;14.45;9.50;;;;;;;;;;6259612;28;20116;-96
2023/11/30 05:03:51;;;;;;;14.80;9.50;;;;;;;;;;6175930;28;20066;-96
2023/11/30 05:15:09;;;;;;;15.40;9.88;;;;;;;;;;6087028;29;20052;-96
2023/11/30 05:18:44;;;;;;;14.32;8.70;;;;;;;;;;6094507;29;20053;-96
2023/11/30 05:26:13;;;;;;;13.70;8.02;;;;;;;;;;6067922;29;20055;-96
2023/11/30 05:29:14;;;;;;;15.90;9.30;;;;;;;;;;6102486;29;20049;-96
2023/11/30 05:42:23;;;;;;;15.75;8.90;;;;;;;;;;6156299;28;20181;-96
2023/11/30 05:45:27;;;;;;;13.38;8.73;;;;;;;;;;6153264;28;20051;-96
2023/11/30 05:48:36;;;;;;;14.63;9.32;;;;;;;;;;6134908;28;20061;-96
2023/11/30 05:54:57;;;;;;;13.90;9.35;;;;;;;;;;6115177;29;20055;-96
2023/11/30 06:01:16;;;;;;;12.40;7.72;;;;;;;;;;6129252;29;20059;-95
2023/11/30 06:04:19;;;;;;;16.73;9.80;;;;;;;;;;6149860;28;20047;-96
2023/11/30 06:07:24;;;;;;;16.98;9.48;;;;;;;;;;6193697;28;20046;-96
2023/11/30 06:10:29;;;;;;;13.10;8.57;;;;;;;;;;6209901;28;20350;-96
2023/11/30 06:33:29;;;;;;;14.27;9.27;;;;;;;;;;6200256;28;20128;-96
2023/11/30 06:36:32;;;;;;;13.25;8.90;;;;;;;;;;6308711;28;20044;-96
2023/11/30 06:39:35;;;;;;;16.77;9.18;;;;;;;;;;6303798;28;20251;-96
2023/11/30 06:42:38;;;;;;;13.98;8.57;;;;;;;;;;6304894;28;20033;-96
2023/11/30 06:49:10;;;;;;;13.02;7.35;;;;;;;;;;6249847;28;20057;-96
2023/11/30 06:52:13;;;;;;;12.65;7.57;;;;;;;;;;6306748;28;20053;-96
2023/11/30 06:55:15;;;;;;;13.20;7.60;;;;;;;;;;6298630;28;20053;-96
2023/11/30 07:09:17;;;;;;;11.73;7.53;;;;;;;;;;6268943;28;20049;-96
2023/11/30 07:12:24;;;;;;;14.00;7.80;;;;;;;;;;6277031;28;20061;-96
2023/11/30 07:15:49;;;;;;;12.68;7.65;;;;;;;;;;6195821;28;20046;-96
2023/11/30 07:23:03;;;;;;;12.45;7.35;;;;;;;;;;6124479;28;20031;-96
2023/11/30 07:26:41;;;;;;;13.85;7.78;;;;;;;;;;6155758;28;20054;-96
2023/11/30 08:21:02;;;;;;;13.43;8.95;;;;;;;;;;6918479;22;20229;-96
2023/11/30 08:24:06;;;;;;;14.40;8.40;;;;;;;;;;6275964;28;20126;-96
2023/11/30 08:31:01;;;;;;;17.17;8.98;;;;;;;;;;6206132;28;20046;-96
2023/11/30 08:37:33;;;;;;;14.57;9.18;;;;;;;;;;6261727;28;20041;-96
2023/11/30 08:40:54;;;;;;;15.73;9.93;;;;;;;;;;6278177;28;20053;-96
2023/11/30 08:44:04;;;;;;;16.08;9.57;;;;;;;;;;6223107;28;20063;-96
2023/11/30 08:47:07;;;;;;;15.10;9.82;;;;;;;;;;6275491;28;20360;-96
2023/11/30 08:50:10;;;;;;;18.02;10.07;;;;;;;;;;6262213;28;20037;-96
2023/11/30 08:53:20;;;;;;;17.27;9.68;;;;;;;;;;6268785;28;20233;-96
2023/11/30 08:56:43;;;;;;;14.82;9.57;;;;;;;;;;6256626;28;20053;-94
2023/11/30 08:59:46;;;;;;;17.95;10.52;;;;;;;;;;6277314;28;20124;-93
2023/11/30 09:03:07;;;;;;;16.17;10.02;;;;;;;;;;6261020;28;20235;-94
2023/11/30 09:06:11;;;;;;;14.77;9.38;;;;;;;;;;6275872;28;20052;-94
2023/11/30 09:09:13;;;;;;;;;;;;;;;;;;6271781;28;20061;-94
2023/11/30 09:12:16;;;;;;;14.23;8.50;;;;;;;;;;6272852;28;19917;-95
2023/11/30 09:15:18;;;;;;;15.02;9.27;;;;;;;;;;6277356;28;20063;-93
2023/11/30 09:18:21;;;;;;;13.88;8.52;;;;;;;;;;6275135;28;20057;-95
2023/11/30 09:21:23;;;;;;;12.77;8.25;;;;;;;;;;6276363;28;20095;-96
2023/11/30 09:24:25;;;;;;;14.18;8.82;;;;;;;;;;6274172;28;20049;-95
2023/11/30 09:27:32;;;;;;;12.02;8.23;;;;;;;;;;6274011;28;20044;-96
2023/11/30 09:30:34;;;;;;;12.95;8.35;;;;;;;;;;6274010;28;20375;-96
2023/11/30 09:33:37;;;;;;;13.13;8.18;;;;;;;;;;6276103;28;20051;-96
2023/11/30 09:36:39;;;;;;;14.03;9.10;;;;;;;;;;6267862;28;20108;-95
2023/11/30 09:39:41;;;;;;;14.00;9.50;;;;;;;;;;6272329;28;20480;-96
2023/11/30 09:42:45;;;;;;;12.65;8.23;;;;;;;;;;6273470;28;20087;-96
2023/11/30 09:45:49;;;;;;;15.45;9.60;;;;;;;;;;6275087;28;20060;-96
2023/11/30 09:48:51;;;;;;;13.50;9.38;;;;;;;;;;6273254;28;20045;-96
2023/11/30 09:51:53;;;;;;;15.90;10.07;;;;;;;;;;6275374;28;20045;-96
2023/11/30 09:54:56;;;;;;;16.70;10.43;;;;;;;;;;6251791;28;20315;-96
2023/11/30 09:58:00;;;;;;;18.45;10.82;;;;;;;;;;6272357;28;20094;-96
2023/11/30 10:01:02;;;;;;;18.38;10.48;;;;;;;;;;6237723;28;20053;-96
2023/11/30 10:04:13;;;;;;;15.65;10.20;;;;;;;;;;6273533;28;20107;-96
2023/11/30 10:07:16;;;;;;;17.13;10.98;;;;;;;;;;6271785;28;20055;-96
2023/11/30 10:10:18;;;;;;;15.82;10.55;;;;;;;;;;6271437;28;20057;-96
2023/11/30 10:13:22;;;;;;;15.10;10.48;;;;;;;;;;6269035;28;20049;-96
2023/11/30 10:16:23;;;;;;;18.38;10.88;;;;;;;;;;6270429;28;20055;-96
2023/11/30 10:19:26;;;;;;;16.92;10.60;;;;;;;;;;6271815;28;20045;-95
2023/11/30 10:22:28;;;;;;;17.45;11.25;;;;;;;;;;6269687;28;20040;-96
2023/11/30 10:25:30;;;;;;;16.17;10.60;;;;;;;;;;6269439;28;20539;-96
2023/11/30 10:32:15;;;;;;;17.13;11.05;;;;;;;;;;6206979;28;20045;-96
2023/11/30 10:35:19;;;;;;;18.15;11.02;;;;;;;;;;6272993;28;20105;-96
2023/11/30 10:38:22;;;;;;;20.00;11.38;;;;;;;;;;6274031;28;20045;-95
2023/11/30 10:41:29;;;;;;;18.52;11.40;;;;;;;;;;6272249;28;20148;-95
2023/11/30 10:44:32;;;;;;;14.25;10.70;;;;;;;;;;6267188;28;20267;-95
2023/11/30 10:47:36;;;;;;;17.98;11.57;;;;;;;;;;6266004;28;20081;-96
2023/11/30 10:50:38;;;;;;;15.35;9.20;;;;;;;;;;6248348;28;20053;-96
2023/11/30 10:53:46;;;;;;;17.27;11.00;;;;;;;;;;6268405;28;20230;-95
2023/11/30 10:56:48;;;;;;;18.33;11.65;;;;;;;;;;6268606;28;20057;-95
2023/11/30 11:03:15;;;;;;;16.75;11.52;;;;;;;;;;6206960;28;20077;-95
2023/11/30 11:06:17;;;;;;;;;;;;;;;;;;6268012;28;20048;-94
2023/11/30 11:09:42;;;;;;;18.58;10.40;;;;;;;;;;6270917;28;19993;-95
2023/11/30 11:12:52;;;;;;;;;;;;;;;;;;6271401;28;20322;-96
2023/11/30 11:22:57;;;;;;;17.35;11.68;;;;;;;;;;6249893;28;20053;-96
2023/11/30 11:25:59;;;;;;;17.58;12.00;;;;;;;;;;6269186;28;20057;-96
2023/11/30 11:29:02;;;;;;;18.58;12.70;;;;;;;;;;6272771;28;20048;-96
2023/11/30 11:35:52;;;;;;;18.55;11.77;;;;;;;;;;6267768;28;20060;-96
2023/11/30 11:38:54;;;;;;;21.17;12.45;;;;;;;;;;6266682;28;20114;-96
2023/11/30 11:41:56;;;;;;;19.98;12.73;;;;;;;;;;6269016;28;20060;-96
2023/11/30 11:45:01;;;;;;;18.15;12.15;;;;;;;;;;6253694;28;20061;-96
2023/11/30 11:48:05;;;;;;;21.15;13.45;;;;;;;;;;6266100;28;20063;-96
2023/11/30 11:51:07;;;;;;;;;;;;;;;;;;6271818;28;20045;-95
2023/11/30 11:54:19;;;;;;;18.90;11.27;;;;;;;;;;6267365;28;19924;-96
2023/11/30 11:57:32;;;;;;;18.35;11.77;;;;;;;;;;6268898;28;20080;-95
2023/11/30 12:00:34;;;;;;;18.52;12.40;;;;;;;;;;6243169;28;20055;-95
2023/11/30 12:10:30;;;;;;;18.10;11.88;;;;;;;;;;6207126;28;20060;-94
2023/11/30 12:13:37;;;;;;;20.87;13.23;;;;;;;;;;6266847;28;20306;-95
2023/11/30 12:16:39;;;;;;;20.17;13.32;;;;;;;;;;6262036;28;20108;-95
2023/11/30 12:22:58;;;;;;;19.48;12.95;;;;;;;;;;6241808;28;20060;-96
2023/11/30 12:26:00;;;;;;;22.90;13.45;;;;;;;;;;6265795;28;20292;-96
2023/11/30 12:29:02;;;;;;;19.95;12.73;;;;;;;;;;6266820;28;20061;-95
2023/11/30 12:32:04;;;;;;;21.55;13.90;;;;;;;;;;6269526;28;20109;-94
2023/11/30 12:35:09;;;;;;;21.52;12.65;;;;;;;;;;6276222;28;20107;-95
2023/11/30 12:38:13;;;;;;;20.85;13.13;;;;;;;;;;6274466;28;20060;-96
2023/11/30 12:41:15;;;;;;;21.27;12.95;;;;;;;;;;6274752;28;20069;-96
2023/11/30 12:44:17;;;;;;;19.98;13.27;;;;;;;;;;6275990;28;20116;-95
2023/11/30 12:47:20;;;;;;;20.83;13.10;;;;;;;;;;6275430;28;20049;-95
2023/11/30 12:50:24;;;;;;;23.63;13.63;;;;;;;;;;6248920;28;20076;-96
2023/11/30 12:53:49;;;;;;;21.02;13.23;;;;;;;;;;6267003;28;20120;-96
2023/11/30 12:56:52;;;;;;;22.00;13.70;;;;;;;;;;6272076;28;20041;-96
2023/11/30 12:59:55;;;;;;;25.98;14.77;;;;;;;;;;6273243;28;20334;-96
2023/11/30 13:02:57;;;;;;;24.37;15.10;;;;;;;;;;6271621;28;20377;-95
2023/11/30 13:06:00;;;;;;;25.83;16.08;;;;;;;;;;6276575;28;20345;-96
2023/11/30 13:09:22;;;;;;;22.60;14.52;;;;;;;;;;6202989;28;20354;-95
2023/11/30 13:12:26;;;;;;;25.05;16.08;;;;;;;;;;6268053;28;20116;-95
2023/11/30 13:15:28;;;;;;;25.00;15.07;;;;;;;;;;6272458;28;20076;-96
2023/11/30 13:18:31;;;;;;;24.35;15.57;;;;;;;;;;6268845;28;20048;-96
2023/11/30 13:24:51;;;;;;;26.35;14.95;;;;;;;;;;6189330;28;20056;-96
2023/11/30 13:27:53;;;;;;;25.15;15.30;;;;;;;;;;6278743;28;20069;-93
2023/11/30 13:30:55;;;;;;;23.23;15.25;;;;;;;;;;6273014;28;20056;-96
2023/11/30 13:33:57;;;;;;;25.98;15.95;;;;;;;;;;6275640;28;20049;-95
2023/11/30 13:37:00;;;;;;;22.70;14.60;;;;;;;;;;6270007;28;20080;-95
2023/11/30 13:40:05;;;;;;;27.23;15.85;;;;;;;;;;6271802;28;20109;-95
2023/11/30 13:43:07;;;;;;;24.80;16.27;;;;;;;;;;6268475;28;20225;-96
2023/11/30 13:46:12;;;;;;;26.55;15.60;;;;;;;;;;6274783;28;20056;-94
2023/11/30 13:49:15;;;;;;;27.13;16.33;;;;;;;;;;6260606;28;20113;-95
2023/11/30 13:52:18;;;;;;;24.42;15.48;;;;;;;;;;6268553;28;20368;-95
2023/11/30 13:55:20;;;;;;;26.23;16.47;;;;;;;;;;6271922;28;20059;-96
2023/11/30 13:58:24;;;;;;;24.55;15.23;;;;;;;;;;6269150;28;20065;-96
2023/11/30 14:01:27;;;;;;;24.95;15.80;;;;;;;;;;6273944;28;20113;-96
2023/11/30 14:04:50;;;;;;;26.75;16.10;;;;;;;;;;6247134;28;20207;-96
2023/11/30 14:07:53;;;;;;;27.85;16.40;;;;;;;;;;6269764;28;20057;-96
2023/11/30 14:10:55;;;;;;;27.83;16.20;;;;;;;;;;6275946;28;20112;-96
2023/11/30 14:14:05;;;;;;;24.13;15.98;;;;;;;;;;6275405;28;20936;-96
2023/11/30 14:17:09;;;;;;;26.30;16.15;;;;;;;;;;6269145;28;20056;-96
2023/11/30 14:20:11;;;;;;;25.45;16.70;;;;;;;;;;6274447;28;20120;-96
2023/11/30 14:23:15;;;;;;;28.95;16.52;;;;;;;;;;6274852;28;20047;-96
2023/11/30 14:26:17;;;;;;;26.58;16.50;;;;;;;;;;6275681;28;20128;-96
2023/11/30 14:29:19;;;;;;;24.60;15.00;;;;;;;;;;6272480;28;20057;-95
2023/11/30 14:32:21;;;;;;;25.95;15.93;;;;;;;;;;6273752;28;20045;-95
2023/11/30 14:35:23;;;;;;;25.20;16.02;;;;;;;;;;6252499;28;20049;-96
2023/11/30 14:38:27;;;;;;;25.65;15.32;;;;;;;;;;6272488;28;20041;-96
2023/11/30 14:41:29;;;;;;;26.70;15.63;;;;;;;;;;6266967;28;20067;-96
2023/11/30 14:44:30;;;;;;;25.05;15.70;;;;;;;;;;6274179;28;20261;-96
2023/11/30 14:47:39;;;;;;;24.60;15.85;;;;;;;;;;6268049;28;20060;-96
2023/11/30 14:50:42;;;;;;;25.55;15.68;;;;;;;;;;6256935;28;20045;-96
2023/11/30 14:57:26;;;;;;;35.20;19.23;;;;;;;;;;6270121;28;20060;-96
2023/11/30 15:00:30;;;;;;;26.05;16.15;;;;;;;;;;6269362;28;20057;-96
2023/11/30 15:03:32;;;;;;;26.60;16.52;;;;;;;;;;6270811;28;20079;-96
2023/11/30 15:06:34;;;;;;;27.05;16.52;;;;;;;;;;6272532;28;20085;-96
2023/11/30 15:09:41;;;;;;;28.17;15.98;;;;;;;;;;6269267;28;20049;-96
2023/11/30 15:13:02;;;;;;;25.67;15.52;;;;;;;;;;6233817;28;20121;-96
2023/11/30 15:16:06;;;;;;;25.70;15.90;;;;;;;;;;6258469;28;20390;-96
2023/11/30 15:19:09;;;;;;;25.10;16.17;;;;;;;;;;6271440;28;20068;-96
2023/11/30 15:22:12;;;;;;;26.00;16.57;;;;;;;;;;6272548;28;20459;-95
2023/11/30 15:28:35;;;;;;;24.13;15.63;;;;;;;;;;6273960;28;20252;-96
2023/11/30 15:34:52;;;;;;;25.65;15.02;;;;;;;;;;6233125;28;20045;-96
2023/11/30 15:37:57;;;;;;;26.58;16.05;;;;;;;;;;6270043;28;20053;-96
2023/11/30 15:41:00;;;;;;;;;;;;;;;;;;6272367;28;20053;-96
2023/11/30 15:44:02;;;;;;;22.98;14.02;;;;;;;;;;6272823;28;19923;-96
2023/11/30 15:47:04;;;;;;;25.42;15.70;;;;;;;;;;6272752;28;20233;-96
2023/11/30 15:50:07;;;;;;;24.58;14.68;;;;;;;;;;6271773;28;20061;-96
2023/11/30 15:53:10;;;;;;;25.55;16.17;;;;;;;;;;6274326;28;20060;-96
2023/11/30 15:59:35;;;;;;;25.92;15.98;;;;;;;;;;6241816;28;20053;-96
2023/11/30 16:02:38;;;;;;;24.97;15.13;;;;;;;;;;6272060;28;20056;-96
2023/11/30 16:05:40;;;;;;;23.27;15.35;;;;;;;;;;6270804;28;20050;-96
2023/11/30 16:08:42;;;;;;;24.60;14.23;;;;;;;;;;6249145;28;21961;-96
2023/11/30 16:11:48;;;;;;;22.70;15.13;;;;;;;;;;6271558;28;20072;-96
2023/11/30 16:14:50;;;;;;;25.38;14.82;;;;;;;;;;6266037;28;20051;-96
2023/11/30 16:17:54;;;;;;;23.40;14.20;;;;;;;;;;6273334;28;20052;-96
2023/11/30 16:20:57;;;;;;;23.15;13.35;;;;;;;;;;6268880;28;20053;-96
2023/11/30 16:23:59;;;;;;;22.77;14.15;;;;;;;;;;6272580;28;20278;-96
2023/11/30 16:33:54;;;;;;;24.75;14.57;;;;;;;;;;6194103;28;20050;-96
2023/11/30 16:37:16;;;;;;;22.52;14.65;;;;;;;;;;6093264;28;20251;-96
2023/11/30 16:40:19;;;;;;;26.63;15.40;;;;;;;;;;6218771;28;20081;-96
2023/11/30 16:46:38;;;;;;;27.15;15.55;;;;;;;;;;6191081;28;20300;-96
2023/11/30 16:49:41;;;;;;;27.50;16.05;;;;;;;;;;6202246;28;20058;-96
2023/11/30 16:52:47;;;;;;;25.85;14.98;;;;;;;;;;6220070;28;20038;-96
2023/11/30 16:55:49;;;;;;;25.90;16.13;;;;;;;;;;6267472;28;20057;-96
2023/11/30 17:02:56;;;;;;;26.13;16.88;;;;;;;;;;6251909;28;20100;-96
2023/11/30 17:05:58;;;;;;;29.08;17.50;;;;;;;;;;6254085;28;20154;-96
2023/11/30 17:09:00;;;;;;;30.88;18.13;;;;;;;;;;6271612;28;20075;-96
2023/11/30 17:19:12;;;;;;;33.63;18.17;;;;;;;;;;6154441;28;20047;-96
2023/11/30 17:22:14;;;;;;;49.00;26.17;;;;;;;;;;6142695;28;22392;-96
2023/11/30 17:25:16;;;;;;;83.28;40.95;;;;;;;;;;6153108;28;20126;-96
2023/11/30 17:28:21;;;;;;;36.78;20.25;;;;;;;;;;6150118;28;20059;-96
2023/11/30 17:31:24;;;;;;;31.15;18.42;;;;;;;;;;6146818;28;20090;-96
2023/11/30 17:34:27;;;;;;;33.28;18.33;;;;;;;;;;6147520;28;20043;-96
2023/11/30 17:40:45;;;;;;;34.80;19.40;;;;;;;;;;6125170;28;20078;-96
2023/11/30 17:43:47;;;;;;;36.88;21.63;;;;;;;;;;6231574;28;20067;-96
2023/11/30 17:50:08;;;;;;;34.70;19.83;;;;;;;;;;6218501;28;20106;-96
2023/11/30 17:53:09;;;;;;;42.92;20.90;;;;;;;;;;6271168;28;20273;-96
2023/11/30 17:56:11;;;;;;;34.20;19.27;;;;;;;;;;6273152;28;20116;-94
2023/11/30 17:59:16;;;;;;;40.78;22.40;;;;;;;;;;6269786;28;20101;-96
2023/11/30 18:02:20;;;;;;;35.88;21.52;;;;;;;;;;6275050;28;20056;-96
2023/11/30 18:05:21;;;;;;;37.17;20.30;;;;;;;;;;6279844;28;20072;-96
2023/11/30 18:08:23;;;;;;;37.15;20.92;;;;;;;;;;6272832;28;20117;-96
2023/11/30 18:11:25;;;;;;;39.13;21.15;;;;;;;;;;6276452;28;20341;-96
2023/11/30 18:14:31;;;;;;;38.65;20.80;;;;;;;;;;6274571;28;20337;-96
2023/11/30 18:17:34;;;;;;;36.40;21.77;;;;;;;;;;6271329;28;20044;-96
2023/11/30 18:20:37;;;;;;;36.50;21.13;;;;;;;;;;6274301;28;20067;-96
2023/11/30 18:23:39;;;;;;;35.38;21.52;;;;;;;;;;6272536;28;20068;-96
2023/11/30 18:26:41;;;;;;;36.00;20.55;;;;;;;;;;6259464;28;20067;-96
2023/11/30 18:29:45;;;;;;;34.72;21.05;;;;;;;;;;6255893;28;20044;-96
2023/11/30 18:36:29;;;;;;;33.60;19.52;;;;;;;;;;6158182;28;20072;-96
2023/11/30 18:39:32;;;;;;;33.65;20.23;;;;;;;;;;6154308;28;20055;-96
2023/11/30 18:42:34;;;;;;;36.50;20.55;;;;;;;;;;6154843;28;20062;-96
2023/11/30 18:45:38;;;;;;;36.63;20.77;;;;;;;;;;6150178;28;20054;-96
2023/11/30 18:48:43;;;;;;;37.83;21.80;;;;;;;;;;6148276;28;20059;-96
2023/11/30 18:51:47;;;;;;;36.10;20.67;;;;;;;;;;6140577;28;20075;-96
2023/11/30 18:54:51;;;;;;;36.63;21.25;;;;;;;;;;6158327;28;20057;-96
2023/11/30 18:57:54;;;;;;;35.60;19.83;;;;;;;;;;6153627;28;20054;-96
2023/11/30 19:00:56;;;;;;;38.60;21.30;;;;;;;;;;6206379;28;20056;-96
2023/11/30 19:11:20;;;;;;;40.85;21.85;;;;;;;;;;6171664;28;20089;-96
2023/11/30 19:14:22;;;;;;;35.40;19.90;;;;;;;;;;6270863;28;20044;-96
2023/11/30 19:17:25;;;;;;;36.15;22.15;;;;;;;;;;6262686;28;20057;-96
2023/11/30 19:20:31;;;;;;;40.58;22.27;;;;;;;;;;6272366;28;20091;-96
2023/11/30 19:26:56;;;;;;;41.97;22.17;;;;;;;;;;6169616;28;20110;-96
2023/11/30 19:30:14;;;;;;;37.65;21.02;;;;;;;;;;6153382;28;20035;-96
2023/11/30 19:33:16;;;;;;;39.70;22.35;;;;;;;;;;6148792;28;20062;-95
2023/11/30 19:43:00;;;;;;;39.50;21.60;;;;;;;;;;6084719;29;20048;-96
2023/11/30 19:46:02;;;;;;;40.63;21.10;;;;;;;;;;6110647;29;20100;-96
2023/11/30 19:49:04;;;;;;;38.85;21.77;;;;;;;;;;6106500;29;20048;-96
2023/11/30 19:52:09;;;;;;;38.25;22.10;;;;;;;;;;6100399;29;20056;-94
2023/11/30 19:55:11;;;;;;;34.22;20.55;;;;;;;;;;6099866;29;20234;-95
2023/11/30 19:58:13;;;;;;;39.22;21.08;;;;;;;;;;6101524;29;20055;-94
2023/11/30 20:01:20;;;;;;;40.65;22.92;;;;;;;;;;6108760;29;20408;-96
2023/11/30 20:04:23;;;;;;;37.47;20.05;;;;;;;;;;6109093;29;20051;-96
2023/11/30 20:07:26;;;;;;;35.83;19.60;;;;;;;;;;6122076;29;20066;-96
2023/11/30 20:10:28;;;;;;;38.53;20.83;;;;;;;;;;6122245;28;20297;-94
2023/11/30 20:13:30;;;;;;;37.83;20.90;;;;;;;;;;6118218;29;20456;-96
2023/11/30 20:16:32;;;;;;;38.10;21.15;;;;;;;;;;6174655;28;20049;-95
2023/11/30 20:19:35;;;;;;;36.40;20.35;;;;;;;;;;6267863;28;20607;-95
2023/11/30 20:22:38;;;;;;;43.72;21.75;;;;;;;;;;6266644;28;20045;-96
2023/11/30 20:25:40;;;;;;;39.30;21.45;;;;;;;;;;6267959;28;20049;-95
2023/11/30 20:28:42;;;;;;;38.55;21.65;;;;;;;;;;6272680;28;20225;-96
2023/11/30 20:31:44;;;;;;;36.50;19.83;;;;;;;;;;6266462;28;20056;-95
2023/11/30 20:34:46;;;;;;;35.60;20.15;;;;;;;;;;6268881;28;20060;-94
2023/11/30 20:41:06;;;;;;;34.22;19.85;;;;;;;;;;6237584;28;20122;-94
2023/11/30 20:44:08;;;;;;;36.35;20.20;;;;;;;;;;6268748;28;20059;-95
2023/11/30 20:47:10;;;;;;;38.42;21.05;;;;;;;;;;6255550;28;20041;-95
2023/11/30 20:50:12;;;;;;;39.97;21.10;;;;;;;;;;6267133;28;20237;-96
2023/11/30 20:53:15;;;;;;;37.45;20.13;;;;;;;;;;6273624;28;20049;-95
2023/11/30 20:56:17;;;;;;;32.10;19.27;;;;;;;;;;6274484;28;20052;-96
2023/11/30 20:59:19;;;;;;;37.67;20.75;;;;;;;;;;6257107;28;20230;-96
2023/11/30 21:02:22;;;;;;;36.83;20.55;;;;;;;;;;6255970;28;20296;-94
2023/11/30 21:05:24;;;;;;;37.03;20.88;;;;;;;;;;6272209;28;20080;-96
2023/11/30 21:08:29;;;;;;;37.13;20.10;;;;;;;;;;6273639;28;20055;-96
2023/11/30 21:11:31;;;;;;;34.35;20.13;;;;;;;;;;6247199;28;20335;-96
2023/11/30 21:14:33;;;;;;;37.33;20.58;;;;;;;;;;6275443;28;20033;-95
2023/11/30 21:17:36;;;;;;;37.13;20.63;;;;;;;;;;6279026;28;20648;-96
2023/11/30 21:20:38;;;;;;;35.53;19.48;;;;;;;;;;6273945;28;20052;-96
2023/11/30 21:23:41;;;;;;;34.78;20.08;;;;;;;;;;6269846;28;20049;-96
2023/11/30 21:26:44;;;;;;;36.65;20.50;;;;;;;;;;6268487;28;20048;-96
2023/11/30 21:29:46;;;;;;;35.17;20.35;;;;;;;;;;6268639;28;20326;-95
2023/11/30 21:32:48;;;;;;;36.80;20.42;;;;;;;;;;6272532;28;20049;-95
2023/11/30 21:35:50;;;;;;;33.90;18.38;;;;;;;;;;6273070;28;20044;-95
2023/11/30 21:38:53;;;;;;;35.33;19.95;;;;;;;;;;6262869;28;20041;-95
2023/11/30 21:41:56;;;;;;;38.33;20.77;;;;;;;;;;6272732;28;20156;-95
2023/11/30 21:45:00;;;;;;;32.92;18.25;;;;;;;;;;6275044;28;20055;-96
2023/11/30 21:48:03;;;;;;;31.95;18.73;;;;;;;;;;6272078;28;21647;-96
2023/11/30 21:51:06;;;;;;;31.42;18.00;;;;;;;;;;6275886;28;20336;-96
2023/11/30 21:57:25;;;;;;;32.92;17.75;;;;;;;;;;6245033;28;20049;-96
2023/11/30 22:00:27;;;;;;;32.03;17.80;;;;;;;;;;6272431;28;20111;-96
2023/11/30 22:03:29;;;;;;;36.55;18.75;;;;;;;;;;6257433;28;20049;-96
2023/11/30 22:06:31;;;;;;;33.33;19.08;;;;;;;;;;6278273;28;20108;-96
2023/11/30 22:09:35;;;;;;;35.30;19.50;;;;;;;;;;6273948;28;20049;-96
2023/11/30 22:12:37;;;;;;;35.25;19.27;;;;;;;;;;6273398;28;20053;-96
2023/11/30 22:15:39;;;;;;;33.78;19.38;;;;;;;;;;6279520;28;20050;-96
2023/11/30 22:18:43;;;;;;;32.40;18.95;;;;;;;;;;6272077;28;20060;-96
2023/11/30 22:21:45;;;;;;;33.45;18.52;;;;;;;;;;6269344;28;20093;-96
2023/11/30 22:24:50;;;;;;;37.30;19.75;;;;;;;;;;6272433;28;20124;-96
2023/11/30 22:27:52;;;;;;;35.28;19.08;;;;;;;;;;6269220;28;20037;-96
2023/11/30 22:30:54;;;;;;;44.28;24.80;;;;;;;;;;6278492;28;20045;-96
2023/11/30 22:33:56;;;;;;;50.90;26.33;;;;;;;;;;6273705;28;20276;-96
2023/11/30 22:36:59;;;;;;;108.38;51.30;;;;;;;;;;6275826;28;20329;-96
2023/11/30 22:40:02;;;;;;;63.40;32.35;;;;;;;;;;6265115;28;20041;-96
2023/11/30 22:43:04;;;;;;;35.80;20.67;;;;;;;;;;6269833;28;20087;-96
2023/11/30 22:46:07;;;;;;;36.40;19.63;;;;;;;;;;6271705;28;20057;-96
2023/11/30 22:49:09;;;;;;;35.53;20.52;;;;;;;;;;6269301;28;20107;-96
2023/11/30 22:52:11;;;;;;;35.75;19.98;;;;;;;;;;6268891;28;20076;-96
2023/11/30 22:55:14;;;;;;;34.15;19.67;;;;;;;;;;6274278;28;20049;-96
2023/11/30 22:58:16;;;;;;;33.80;20.40;;;;;;;;;;6269239;28;20049;-96
2023/11/30 23:01:18;;;;;;;40.28;19.23;;;;;;;;;;6269715;28;20060;-96